Milwaukee, Wisconsin
Traffic Map
Current Weather Conditions
Milwaukee, Wisconsin
Overcast Light Rain
Overcast
77°
Feels Like: 78°
Wind Chill: 77° Ceiling: 8500
Heat Index: 78° Visibility: 10mi
Dew Point: 72° Wind: 9mph
Humidity: 84% Direction: 280° (W)
Pressure: 29.91in Gusts: 0mph
Raw Report DataKMKE 291052Z 28008KT 10SM -RA FEW070 OVC085 25/22 A2991 RMK AO2 RAB46 SLP124 P0000 T02500222
Traffic Incident Summary
Active as of:
Severity:
Category:
InformationThere was an issue retrieving the traffic information for this location. Please try a different location or try again shortly.
Advertisements
Track Severe Weather on mobile